createdAt,value
2023-01-13T00:01:07.180Z,-4.41
2023-01-13T00:03:34.506Z,-4.44
2023-01-13T00:06:01.640Z,-4.46
2023-01-13T00:08:28.765Z,-4.45
2023-01-13T00:10:55.779Z,-4.34
2023-01-13T00:13:26.905Z,-4.32
2023-01-13T00:16:01.185Z,-4.30
2023-01-13T00:18:28.286Z,-4.34
2023-01-13T00:21:23.305Z,-4.37
2023-01-13T00:23:51.656Z,-4.29
2023-01-13T00:26:20.810Z,-4.25
2023-01-13T00:28:48.054Z,-4.30
2023-01-13T00:31:19.982Z,-4.37
2023-01-13T00:33:49.254Z,-4.37
2023-01-13T00:36:16.376Z,-4.31
2023-01-13T00:38:43.751Z,-4.31
2023-01-13T00:41:12.612Z,-4.34
2023-01-13T00:43:39.730Z,-4.38
2023-01-13T00:46:07.922Z,-4.33
2023-01-13T00:48:35.285Z,-4.24
2023-01-13T00:51:04.131Z,-4.22
2023-01-13T00:53:34.167Z,-4.25
2023-01-13T00:56:05.517Z,-4.28
2023-01-13T00:58:33.654Z,-4.30
2023-01-13T01:01:02.004Z,-4.24
2023-01-13T01:03:29.528Z,-4.19
2023-01-13T01:05:57.418Z,-4.24
2023-01-13T01:08:24.491Z,-4.30
2023-01-13T01:11:00.231Z,-4.33
2023-01-13T01:13:27.267Z,-4.27
2023-01-13T01:15:54.300Z,-4.20
2023-01-13T01:18:21.351Z,-4.21
2023-01-13T01:20:48.395Z,-4.24
2023-01-13T01:23:15.524Z,-4.25
2023-01-13T01:25:42.551Z,-4.18
2023-01-13T01:28:09.621Z,-4.10
2023-01-13T01:30:39.511Z,-4.09
2023-01-13T01:33:06.565Z,-4.11
2023-01-13T01:35:33.631Z,-4.13
2023-01-13T01:38:00.815Z,-4.09
2023-01-13T01:40:27.937Z,-4.00
2023-01-13T01:43:13.662Z,-4.00
2023-01-13T01:45:40.712Z,-4.03
2023-01-13T01:48:07.749Z,-4.06
2023-01-13T01:50:35.025Z,-4.08
2023-01-13T01:53:20.201Z,-4.00
2023-01-13T01:55:47.596Z,-3.94
2023-01-13T01:58:18.932Z,-3.99
2023-01-13T02:00:46.063Z,-4.04
2023-01-13T02:03:13.376Z,-4.07
2023-01-13T02:05:41.431Z,-4.02
2023-01-13T02:08:09.645Z,-3.98
2023-01-13T02:10:36.755Z,-4.04
2023-01-13T02:13:05.871Z,-4.10
2023-01-13T02:15:47.839Z,-4.13
2023-01-13T02:18:31.216Z,-4.05
2023-01-13T02:21:17.235Z,-3.96
2023-01-13T02:24:09.221Z,-3.99
2023-01-13T02:27:11.692Z,-4.02
2023-01-13T02:30:29.796Z,-4.02
2023-01-13T02:33:12.489Z,-3.93
2023-01-13T02:35:52.523Z,-3.98
2023-01-13T02:38:30.361Z,-4.03
2023-01-13T02:41:20.702Z,-4.06
2023-01-13T02:44:06.334Z,-3.98
2023-01-13T02:46:40.215Z,-3.90
2023-01-13T02:49:09.035Z,-3.91
2023-01-13T02:51:36.073Z,-3.92
2023-01-13T02:54:09.312Z,-3.94
2023-01-13T02:56:40.169Z,-3.88
2023-01-13T02:59:07.239Z,-3.82
2023-01-13T03:01:34.271Z,-3.85
2023-01-13T03:04:12.326Z,-3.89
2023-01-13T03:06:57.394Z,-3.93
2023-01-13T03:09:45.501Z,-3.86
2023-01-13T03:12:30.320Z,-3.84
2023-01-13T03:15:01.794Z,-3.89
2023-01-13T03:17:46.177Z,-3.93
2023-01-13T03:20:28.038Z,-3.87
2023-01-13T03:23:22.247Z,-3.82
2023-01-13T03:26:13.661Z,-3.90
2023-01-13T03:28:52.845Z,-3.99
2023-01-13T03:31:23.476Z,-4.04
2023-01-13T03:33:59.785Z,-4.00
2023-01-13T03:36:26.958Z,-3.92
2023-01-13T03:38:56.786Z,-3.94
2023-01-13T03:41:28.161Z,-3.99
2023-01-13T03:44:22.073Z,-4.03
2023-01-13T03:47:08.052Z,-3.96
2023-01-13T03:49:52.449Z,-3.88
2023-01-13T03:52:32.075Z,-3.88
2023-01-13T03:55:13.068Z,-3.90
2023-01-13T03:57:46.087Z,-3.92
2023-01-13T04:00:13.667Z,-3.84
2023-01-13T07:08:32.148Z,-4.03
2023-01-13T07:11:00.619Z,-3.39
2023-01-13T07:13:46.222Z,-3.25
2023-01-13T07:16:13.207Z,-3.17
2023-01-13T07:18:40.192Z,-3.20
2023-01-13T07:21:08.656Z,-3.22
2023-01-13T07:23:37.456Z,-3.17
2023-01-13T07:26:04.538Z,-3.15
2023-01-13T07:28:31.734Z,-3.19
2023-01-13T07:30:58.771Z,-3.23
2023-01-13T07:33:25.818Z,-3.18
2023-01-13T07:36:00.425Z,-3.17
2023-01-13T07:38:27.468Z,-3.24
2023-01-13T07:40:54.470Z,-3.27
2023-01-13T07:43:33.688Z,-3.19
2023-01-13T07:46:05.075Z,-3.19
2023-01-13T07:48:33.030Z,-3.25
2023-01-13T07:51:04.565Z,-3.31
2023-01-13T07:53:31.547Z,-3.28
2023-01-13T07:55:58.976Z,-3.25
2023-01-13T07:58:26.081Z,-3.35
2023-01-13T08:00:53.394Z,-3.43
2023-01-13T08:03:20.463Z,-3.41
2023-01-13T08:05:47.541Z,-3.40
2023-01-13T08:08:15.172Z,-3.45
2023-01-13T08:10:42.312Z,-3.49
2023-01-13T08:13:22.862Z,-3.46
2023-01-13T08:15:51.601Z,-3.41
2023-01-13T08:18:21.371Z,-3.44
2023-01-13T08:20:49.155Z,-3.52
2023-01-13T10:18:20.355Z,-3.43
2023-01-13T10:21:26.168Z,-2.81
2023-01-13T10:24:27.458Z,-2.67
2023-01-13T10:27:04.652Z,-2.67
2023-01-13T10:42:16.674Z,-2.10
2023-01-13T10:44:54.681Z,-1.83
2023-01-13T10:47:30.002Z,-1.91
2023-01-13T10:50:00.170Z,-1.96
2023-01-13T10:52:29.514Z,-2.05
2023-01-13T10:54:56.837Z,-2.15
2023-01-13T10:57:25.403Z,-2.23
2023-01-13T10:59:53.334Z,-2.25
2023-01-13T11:02:27.076Z,-2.25
2023-01-13T11:04:54.367Z,-2.30
2023-01-13T11:07:29.119Z,-2.38
2023-01-13T11:10:15.187Z,-2.39
2023-01-13T11:12:57.742Z,-2.38
2023-01-13T11:15:46.271Z,-2.46
2023-01-13T11:18:13.295Z,-2.52
2023-01-13T11:20:41.504Z,-2.53
2023-01-13T11:23:27.532Z,-2.51
2023-01-13T11:26:22.870Z,-2.57
2023-01-13T11:29:14.554Z,-2.63
2023-01-13T11:31:48.474Z,-2.62
2023-01-13T11:34:32.765Z,-2.55
2023-01-13T11:37:00.951Z,-2.58
2023-01-13T11:39:42.346Z,-2.67
2023-01-13T11:43:00.567Z,-2.74
2023-01-13T11:45:44.535Z,-2.66
2023-01-13T11:48:16.328Z,-2.58
2023-01-13T11:51:11.549Z,-2.60
2023-01-13T11:53:43.703Z,-2.62
2023-01-13T11:56:29.497Z,-2.58
2023-01-13T11:59:02.586Z,-2.48
2023-01-13T12:01:33.676Z,-2.49
2023-01-13T13:28:07.677Z,-2.73
2023-01-13T13:30:39.015Z,-2.19
2023-01-13T13:33:39.400Z,-2.06
2023-01-13T13:36:18.612Z,-2.02
2023-01-13T13:39:32.257Z,-2.07
2023-01-13T13:42:28.469Z,-2.09
2023-01-13T13:45:14.076Z,-2.03
2023-01-13T13:47:41.045Z,-2.06
2023-01-13T13:50:15.408Z,-2.15
2023-01-13T13:52:56.623Z,-2.24
2023-01-13T13:55:25.496Z,-2.28
2023-01-13T13:57:53.845Z,-2.23
2023-01-13T14:00:26.509Z,-2.18
2023-01-13T14:02:54.830Z,-2.21
2023-01-13T14:05:22.866Z,-2.27
2023-01-13T14:07:51.836Z,-2.33
2023-01-13T14:10:24.985Z,-2.31
2023-01-13T14:12:52.548Z,-2.26
2023-01-13T14:15:39.230Z,-2.30
2023-01-13T14:18:11.594Z,-2.37
2023-01-13T14:20:38.844Z,-2.41
2023-01-13T14:23:06.009Z,-2.35
2023-01-13T14:25:40.357Z,-2.28
2023-01-13T14:28:32.537Z,-2.30
2023-01-13T14:30:59.644Z,-2.34
2023-01-13T14:33:44.207Z,-2.39
2023-01-13T14:36:39.594Z,-2.36
2023-01-13T14:39:06.519Z,-2.32
2023-01-13T14:41:34.665Z,-2.40
2023-01-13T14:44:03.197Z,-2.46
2023-01-13T14:46:40.423Z,-2.51
2023-01-13T14:49:17.534Z,-2.47
2023-01-13T14:51:44.680Z,-2.39
2023-01-13T14:55:06.908Z,-2.38
2023-01-13T14:57:35.054Z,-2.43
2023-01-13T15:00:08.195Z,-2.45
2023-01-13T15:02:39.979Z,-2.38
2023-01-13T15:05:19.466Z,-2.40
2023-01-13T15:07:55.767Z,-2.47
2023-01-13T15:10:25.377Z,-2.54
2023-01-13T15:12:53.512Z,-2.51
2023-01-13T15:15:24.330Z,-2.43
2023-01-13T15:17:52.151Z,-2.45
2023-01-13T15:20:21.048Z,-2.49
2023-01-13T15:22:48.641Z,-2.52
2023-01-13T15:25:15.676Z,-2.54
2023-01-13T15:27:43.792Z,-2.48
2023-01-13T15:30:14.984Z,-2.45
2023-01-13T15:32:42.403Z,-2.52
2023-01-13T15:35:16.465Z,-2.58
2023-01-13T15:37:44.176Z,-2.57
2023-01-13T15:40:16.269Z,-2.50
2023-01-13T15:43:01.984Z,-2.49
2023-01-13T15:45:47.729Z,-2.59
2023-01-13T15:48:14.739Z,-2.65
2023-01-13T15:50:41.737Z,-2.61
2023-01-13T15:53:13.689Z,-2.57
2023-01-13T15:55:42.729Z,-2.60
2023-01-13T15:58:11.890Z,-2.64
2023-01-13T16:00:38.891Z,-2.66
2023-01-13T16:03:06.137Z,-2.60
2023-01-13T16:05:33.165Z,-2.51
2023-01-13T16:08:00.121Z,-2.51
2023-01-13T16:10:27.860Z,-2.55
2023-01-13T16:12:57.810Z,-2.59
2023-01-13T16:15:26.136Z,-2.56
2023-01-13T16:17:57.231Z,-2.51
2023-01-13T16:20:24.496Z,-2.55
2023-01-13T16:22:51.562Z,-2.61
2023-01-13T16:25:27.842Z,-2.67
2023-01-13T16:27:54.854Z,-2.65
2023-01-13T16:30:29.303Z,-2.65
2023-01-13T16:32:56.342Z,-2.70
2023-01-13T16:35:23.523Z,-2.74
2023-01-13T16:37:50.830Z,-2.69
2023-01-13T16:40:35.517Z,-2.65
2023-01-13T16:55:01.027Z,-2.21
2023-01-13T16:57:27.989Z,-1.88
2023-01-13T16:59:54.905Z,-1.91
2023-01-13T17:02:22.444Z,-1.98
2023-01-13T17:04:49.493Z,-2.10
2023-01-13T17:07:16.911Z,-2.22
2023-01-13T17:09:43.876Z,-2.25
2023-01-13T17:12:10.999Z,-2.24
2023-01-13T17:14:38.004Z,-2.33
2023-01-13T17:17:05.022Z,-2.48
2023-01-13T17:19:31.950Z,-2.57
2023-01-13T17:21:58.912Z,-2.55
2023-01-13T17:24:26.128Z,-2.56
2023-01-13T17:26:53.091Z,-2.63
2023-01-13T17:29:22.364Z,-2.74
2023-01-13T17:31:50.196Z,-2.77
2023-01-13T17:34:17.323Z,-2.74
2023-01-13T17:36:44.372Z,-2.77
2023-01-13T17:39:22.208Z,-2.84
2023-01-13T17:41:49.888Z,-2.90
2023-01-13T17:44:17.739Z,-2.86
2023-01-13T17:46:44.869Z,-2.82
2023-01-13T17:49:12.952Z,-2.87
2023-01-13T17:51:39.980Z,-2.93
2023-01-13T17:54:07.188Z,-2.91
2023-01-13T17:56:34.103Z,-2.84
2023-01-13T17:59:01.019Z,-2.81
2023-01-13T18:01:30.946Z,-2.83
2023-01-13T18:03:57.998Z,-2.86
2023-01-13T18:06:25.103Z,-2.87
2023-01-13T18:08:52.074Z,-2.81
2023-01-13T18:11:20.343Z,-2.73
2023-01-13T18:13:48.444Z,-2.73
2023-01-13T18:16:17.271Z,-2.78
2023-01-13T18:18:45.547Z,-2.83
2023-01-13T18:21:36.894Z,-2.84
2023-01-13T18:24:23.117Z,-2.76
2023-01-13T18:27:08.906Z,-2.74
2023-01-13T18:29:35.858Z,-2.79
2023-01-13T18:32:02.818Z,-2.84
2023-01-13T18:34:29.797Z,-2.83
2023-01-13T18:36:56.846Z,-2.79
2023-01-13T18:39:23.834Z,-2.82
2023-01-13T18:42:09.633Z,-2.86
2023-01-13T18:44:36.588Z,-2.89
2023-01-13T18:47:03.583Z,-2.85
2023-01-13T18:49:30.587Z,-2.78
2023-01-13T18:51:57.552Z,-2.78
2023-01-13T18:54:24.576Z,-2.83
2023-01-13T18:56:51.563Z,-2.87
2023-01-13T18:59:18.523Z,-2.85
2023-01-13T19:01:45.626Z,-2.80
2023-01-13T19:04:16.709Z,-2.81
2023-01-13T19:06:49.227Z,-2.86
2023-01-13T19:09:16.877Z,-2.92
2023-01-13T19:11:46.737Z,-2.89
2023-01-13T19:14:34.201Z,-2.87
2023-01-13T19:17:02.935Z,-2.91
2023-01-13T19:19:30.321Z,-2.94
2023-01-13T19:21:57.300Z,-2.94
2023-01-13T19:24:26.303Z,-2.85
2023-01-13T19:26:54.813Z,-2.81
2023-01-13T19:29:22.022Z,-2.84
2023-01-13T19:31:49.146Z,-2.90
2023-01-13T19:34:16.496Z,-2.87
2023-01-13T19:36:43.537Z,-2.82
2023-01-13T19:39:10.544Z,-2.86
2023-01-13T19:41:56.125Z,-2.92
2023-01-13T19:44:41.894Z,-2.95
2023-01-13T19:47:08.829Z,-2.89
2023-01-13T19:49:35.881Z,-2.84
2023-01-13T19:52:02.914Z,-2.87
2023-01-13T19:54:30.105Z,-2.92
